sensor_id;sensor_type;location;lat;lon;timestamp;P1;durP1;ratioP1;P2;durP2;ratioP2
72060;SDS011;59925;52.136;5.420;2022-07-29T00:02:12;1.90;;;0.60;;
72060;SDS011;59925;52.136;5.420;2022-07-29T00:04:39;3.10;;;0.60;;
72060;SDS011;59925;52.136;5.420;2022-07-29T00:07:05;1.83;;;0.73;;
72060;SDS011;59925;52.136;5.420;2022-07-29T00:09:32;2.90;;;0.70;;
72060;SDS011;59925;52.136;5.420;2022-07-29T00:12:10;2.28;;;0.90;;
72060;SDS011;59925;52.136;5.420;2022-07-29T00:14:36;1.63;;;0.50;;
72060;SDS011;59925;52.136;5.420;2022-07-29T00:17:03;2.83;;;1.15;;
72060;SDS011;59925;52.136;5.420;2022-07-29T00:19:29;1.17;;;0.70;;
72060;SDS011;59925;52.136;5.420;2022-07-29T00:21:58;2.30;;;0.88;;
72060;SDS011;59925;52.136;5.420;2022-07-29T00:24:24;2.75;;;0.93;;
72060;SDS011;59925;52.136;5.420;2022-07-29T00:26:50;1.97;;;0.70;;
72060;SDS011;59925;52.136;5.420;2022-07-29T00:29:17;2.38;;;0.88;;
72060;SDS011;59925;52.136;5.420;2022-07-29T00:31:59;1.95;;;0.63;;
72060;SDS011;59925;52.136;5.420;2022-07-29T00:34:26;1.40;;;0.60;;
72060;SDS011;59925;52.136;5.420;2022-07-29T00:37:11;1.02;;;0.50;;
72060;SDS011;59925;52.136;5.420;2022-07-29T00:39:37;1.87;;;0.60;;
72060;SDS011;59925;52.136;5.420;2022-07-29T00:42:04;3.60;;;0.95;;
72060;SDS011;59925;52.136;5.420;2022-07-29T00:44:32;3.45;;;1.10;;
72060;SDS011;59925;52.136;5.420;2022-07-29T00:47:02;1.67;;;0.50;;
72060;SDS011;59925;52.136;5.420;2022-07-29T00:49:29;1.15;;;0.57;;
72060;SDS011;59925;52.136;5.420;2022-07-29T00:51:55;0.90;;;0.50;;
72060;SDS011;59925;52.136;5.420;2022-07-29T00:54:22;4.75;;;0.65;;
72060;SDS011;59925;52.136;5.420;2022-07-29T00:56:49;2.28;;;0.82;;
72060;SDS011;59925;52.136;5.420;2022-07-29T00:59:15;1.90;;;0.70;;
72060;SDS011;59925;52.136;5.420;2022-07-29T01:01:42;4.50;;;0.80;;
72060;SDS011;59925;52.136;5.420;2022-07-29T01:04:08;2.63;;;0.70;;
72060;SDS011;59925;52.136;5.420;2022-07-29T01:06:35;1.73;;;0.65;;
72060;SDS011;59925;52.136;5.420;2022-07-29T01:09:02;1.90;;;0.70;;
72060;SDS011;59925;52.136;5.420;2022-07-29T01:11:29;2.50;;;0.88;;
72060;SDS011;59925;52.136;5.420;2022-07-29T01:13:55;1.30;;;0.60;;
72060;SDS011;59925;52.136;5.420;2022-07-29T01:16:33;2.50;;;0.80;;
72060;SDS011;59925;52.136;5.420;2022-07-29T01:22:24;2.00;;;0.73;;
72060;SDS011;59925;52.136;5.420;2022-07-29T01:28:01;3.25;;;0.73;;
72060;SDS011;59925;52.136;5.420;2022-07-29T01:30:39;3.43;;;0.60;;
72060;SDS011;59925;52.136;5.420;2022-07-29T01:33:11;1.85;;;0.70;;
72060;SDS011;59925;52.136;5.420;2022-07-29T01:36:04;2.55;;;0.70;;
72060;SDS011;59925;52.136;5.420;2022-07-29T01:38:37;3.28;;;0.60;;
72060;SDS011;59925;52.136;5.420;2022-07-29T01:41:06;1.45;;;0.70;;
72060;SDS011;59925;52.136;5.420;2022-07-29T01:43:49;4.87;;;1.00;;
72060;SDS011;59925;52.136;5.420;2022-07-29T01:46:21;1.85;;;0.90;;
72060;SDS011;59925;52.136;5.420;2022-07-29T01:48:54;3.85;;;0.90;;
72060;SDS011;59925;52.136;5.420;2022-07-29T01:51:33;3.45;;;0.98;;
72060;SDS011;59925;52.136;5.420;2022-07-29T01:54:08;1.60;;;0.88;;
72060;SDS011;59925;52.136;5.420;2022-07-29T01:56:41;3.67;;;0.90;;
72060;SDS011;59925;52.136;5.420;2022-07-29T01:59:09;1.98;;;0.77;;
72060;SDS011;59925;52.136;5.420;2022-07-29T02:01:37;1.98;;;0.73;;
72060;SDS011;59925;52.136;5.420;2022-07-29T02:04:07;2.83;;;0.90;;
72060;SDS011;59925;52.136;5.420;2022-07-29T02:06:54;2.97;;;0.85;;
72060;SDS011;59925;52.136;5.420;2022-07-29T02:09:24;3.57;;;1.00;;
72060;SDS011;59925;52.136;5.420;2022-07-29T02:11:53;2.00;;;1.17;;
72060;SDS011;59925;52.136;5.420;2022-07-29T02:14:21;2.90;;;0.88;;
72060;SDS011;59925;52.136;5.420;2022-07-29T02:16:50;4.47;;;1.02;;
72060;SDS011;59925;52.136;5.420;2022-07-29T02:19:21;2.92;;;1.02;;
72060;SDS011;59925;52.136;5.420;2022-07-29T02:21:49;1.83;;;0.90;;
72060;SDS011;59925;52.136;5.420;2022-07-29T02:24:18;2.95;;;0.95;;
72060;SDS011;59925;52.136;5.420;2022-07-29T02:26:45;2.25;;;0.85;;
72060;SDS011;59925;52.136;5.420;2022-07-29T02:29:14;4.47;;;0.90;;
72060;SDS011;59925;52.136;5.420;2022-07-29T02:31:41;2.55;;;0.90;;
72060;SDS011;59925;52.136;5.420;2022-07-29T02:34:10;2.70;;;1.17;;
72060;SDS011;59925;52.136;5.420;2022-07-29T02:36:38;2.72;;;1.10;;
72060;SDS011;59925;52.136;5.420;2022-07-29T02:39:06;4.40;;;1.27;;
72060;SDS011;59925;52.136;5.420;2022-07-29T02:41:43;3.40;;;1.10;;
72060;SDS011;59925;52.136;5.420;2022-07-29T02:44:14;3.28;;;1.10;;
72060;SDS011;59925;52.136;5.420;2022-07-29T02:47:02;2.93;;;0.80;;
72060;SDS011;59925;52.136;5.420;2022-07-29T02:49:37;3.55;;;1.17;;
72060;SDS011;59925;52.136;5.420;2022-07-29T02:52:08;2.88;;;0.95;;
72060;SDS011;59925;52.136;5.420;2022-07-29T02:54:47;3.13;;;1.10;;
72060;SDS011;59925;52.136;5.420;2022-07-29T02:57:19;6.18;;;1.30;;
72060;SDS011;59925;52.136;5.420;2022-07-29T02:59:50;5.40;;;1.00;;
72060;SDS011;59925;52.136;5.420;2022-07-29T03:02:18;4.32;;;0.85;;
72060;SDS011;59925;52.136;5.420;2022-07-29T03:04:47;4.07;;;1.20;;
72060;SDS011;59925;52.136;5.420;2022-07-29T03:07:15;3.78;;;0.88;;
72060;SDS011;59925;52.136;5.420;2022-07-29T03:09:45;3.85;;;1.05;;
72060;SDS011;59925;52.136;5.420;2022-07-29T03:12:12;3.07;;;1.10;;
72060;SDS011;59925;52.136;5.420;2022-07-29T03:14:40;1.48;;;0.90;;
72060;SDS011;59925;52.136;5.420;2022-07-29T03:17:08;3.40;;;1.25;;
72060;SDS011;59925;52.136;5.420;2022-07-29T03:19:35;1.92;;;1.10;;
72060;SDS011;59925;52.136;5.420;2022-07-29T03:22:02;2.17;;;1.65;;
72060;SDS011;59925;52.136;5.420;2022-07-29T03:24:31;1.83;;;0.97;;
72060;SDS011;59925;52.136;5.420;2022-07-29T03:26:58;1.95;;;1.02;;
72060;SDS011;59925;52.136;5.420;2022-07-29T03:29:26;2.78;;;1.00;;
72060;SDS011;59925;52.136;5.420;2022-07-29T03:31:59;2.50;;;1.10;;
72060;SDS011;59925;52.136;5.420;2022-07-29T03:34:27;3.38;;;1.00;;
72060;SDS011;59925;52.136;5.420;2022-07-29T03:36:54;2.10;;;1.10;;
72060;SDS011;59925;52.136;5.420;2022-07-29T03:39:21;1.85;;;1.00;;
72060;SDS011;59925;52.136;5.420;2022-07-29T03:41:52;3.25;;;1.00;;
72060;SDS011;59925;52.136;5.420;2022-07-29T03:44:21;3.72;;;1.40;;
72060;SDS011;59925;52.136;5.420;2022-07-29T03:46:49;4.47;;;1.00;;
72060;SDS011;59925;52.136;5.420;2022-07-29T03:49:18;1.27;;;0.60;;
72060;SDS011;59925;52.136;5.420;2022-07-29T03:51:46;3.10;;;1.08;;
72060;SDS011;59925;52.136;5.420;2022-07-29T03:54:13;3.10;;;0.93;;
72060;SDS011;59925;52.136;5.420;2022-07-29T03:56:42;1.10;;;0.68;;
72060;SDS011;59925;52.136;5.420;2022-07-29T03:59:15;1.55;;;0.60;;
72060;SDS011;59925;52.136;5.420;2022-07-29T04:01:43;1.83;;;0.83;;
72060;SDS011;59925;52.136;5.420;2022-07-29T04:04:11;2.95;;;0.85;;
72060;SDS011;59925;52.136;5.420;2022-07-29T04:06:41;3.75;;;0.82;;
72060;SDS011;59925;52.136;5.420;2022-07-29T04:09:09;3.63;;;0.90;;
72060;SDS011;59925;52.136;5.420;2022-07-29T04:11:36;2.47;;;0.90;;
72060;SDS011;59925;52.136;5.420;2022-07-29T04:14:24;1.53;;;0.90;;
72060;SDS011;59925;52.136;5.420;2022-07-29T04:16:51;2.05;;;0.90;;
72060;SDS011;59925;52.136;5.420;2022-07-29T04:19:18;2.17;;;1.20;;
72060;SDS011;59925;52.136;5.420;2022-07-29T04:21:45;3.20;;;1.00;;
72060;SDS011;59925;52.136;5.420;2022-07-29T04:24:11;3.83;;;1.08;;
72060;SDS011;59925;52.136;5.420;2022-07-29T04:26:38;3.10;;;0.97;;
72060;SDS011;59925;52.136;5.420;2022-07-29T04:29:04;3.08;;;1.10;;
72060;SDS011;59925;52.136;5.420;2022-07-29T04:31:31;3.38;;;1.20;;
72060;SDS011;59925;52.136;5.420;2022-07-29T04:33:57;1.92;;;0.85;;
72060;SDS011;59925;52.136;5.420;2022-07-29T04:36:24;3.25;;;1.17;;
72060;SDS011;59925;52.136;5.420;2022-07-29T04:38:55;3.63;;;0.90;;
72060;SDS011;59925;52.136;5.420;2022-07-29T04:41:21;1.83;;;0.85;;
72060;SDS011;59925;52.136;5.420;2022-07-29T04:43:48;2.30;;;1.02;;
72060;SDS011;59925;52.136;5.420;2022-07-29T04:46:15;3.60;;;1.08;;
72060;SDS011;59925;52.136;5.420;2022-07-29T04:48:42;1.83;;;0.82;;
72060;SDS011;59925;52.136;5.420;2022-07-29T04:51:08;2.00;;;1.03;;
72060;SDS011;59925;52.136;5.420;2022-07-29T04:53:35;2.25;;;0.90;;
72060;SDS011;59925;52.136;5.420;2022-07-29T04:56:01;2.67;;;1.05;;
72060;SDS011;59925;52.136;5.420;2022-07-29T04:58:28;2.92;;;1.02;;
72060;SDS011;59925;52.136;5.420;2022-07-29T05:00:54;2.85;;;1.15;;
72060;SDS011;59925;52.136;5.420;2022-07-29T05:03:21;3.33;;;1.00;;
72060;SDS011;59925;52.136;5.420;2022-07-29T05:05:47;2.78;;;1.00;;
72060;SDS011;59925;52.136;5.420;2022-07-29T05:08:14;3.28;;;1.10;;
72060;SDS011;59925;52.136;5.420;2022-07-29T05:10:40;3.90;;;1.30;;
72060;SDS011;59925;52.136;5.420;2022-07-29T05:13:07;2.85;;;1.33;;
72060;SDS011;59925;52.136;5.420;2022-07-29T05:15:34;3.77;;;1.20;;
72060;SDS011;59925;52.136;5.420;2022-07-29T05:18:01;4.18;;;1.40;;
72060;SDS011;59925;52.136;5.420;2022-07-29T05:20:28;4.55;;;1.30;;
72060;SDS011;59925;52.136;5.420;2022-07-29T05:22:55;2.53;;;1.30;;
72060;SDS011;59925;52.136;5.420;2022-07-29T05:25:24;2.53;;;1.10;;
72060;SDS011;59925;52.136;5.420;2022-07-29T05:28:09;5.47;;;1.70;;
72060;SDS011;59925;52.136;5.420;2022-07-29T05:30:36;2.95;;;1.30;;
72060;SDS011;59925;52.136;5.420;2022-07-29T05:33:02;4.22;;;1.35;;
72060;SDS011;59925;52.136;5.420;2022-07-29T05:35:29;3.38;;;1.45;;
72060;SDS011;59925;52.136;5.420;2022-07-29T05:37:55;2.72;;;1.30;;
72060;SDS011;59925;52.136;5.420;2022-07-29T05:40:22;6.73;;;1.20;;
72060;SDS011;59925;52.136;5.420;2022-07-29T05:42:48;5.28;;;1.15;;
72060;SDS011;59925;52.136;5.420;2022-07-29T05:45:14;3.15;;;1.55;;
72060;SDS011;59925;52.136;5.420;2022-07-29T05:47:41;3.92;;;1.20;;
72060;SDS011;59925;52.136;5.420;2022-07-29T05:50:07;2.05;;;1.25;;
72060;SDS011;59925;52.136;5.420;2022-07-29T05:52:34;2.17;;;1.07;;
72060;SDS011;59925;52.136;5.420;2022-07-29T05:55:01;3.13;;;1.30;;
72060;SDS011;59925;52.136;5.420;2022-07-29T05:57:30;2.42;;;1.40;;
72060;SDS011;59925;52.136;5.420;2022-07-29T05:59:57;2.40;;;1.15;;
72060;SDS011;59925;52.136;5.420;2022-07-29T06:02:23;2.58;;;1.23;;
72060;SDS011;59925;52.136;5.420;2022-07-29T06:04:50;2.50;;;1.20;;
72060;SDS011;59925;52.136;5.420;2022-07-29T06:07:16;4.35;;;1.67;;
72060;SDS011;59925;52.136;5.420;2022-07-29T06:09:43;2.50;;;1.30;;
72060;SDS011;59925;52.136;5.420;2022-07-29T06:12:09;2.70;;;1.17;;
72060;SDS011;59925;52.136;5.420;2022-07-29T06:14:36;1.70;;;1.13;;
72060;SDS011;59925;52.136;5.420;2022-07-29T06:17:04;3.83;;;1.47;;
72060;SDS011;59925;52.136;5.420;2022-07-29T06:19:33;2.38;;;1.08;;
72060;SDS011;59925;52.136;5.420;2022-07-29T06:22:00;4.07;;;1.38;;
72060;SDS011;59925;52.136;5.420;2022-07-29T06:24:26;3.50;;;1.42;;
72060;SDS011;59925;52.136;5.420;2022-07-29T06:26:53;2.08;;;1.30;;
72060;SDS011;59925;52.136;5.420;2022-07-29T06:29:19;2.20;;;1.10;;
72060;SDS011;59925;52.136;5.420;2022-07-29T06:31:46;4.22;;;1.30;;
72060;SDS011;59925;52.136;5.420;2022-07-29T06:34:12;4.03;;;1.17;;
72060;SDS011;59925;52.136;5.420;2022-07-29T06:36:39;4.80;;;1.63;;
72060;SDS011;59925;52.136;5.420;2022-07-29T06:39:06;2.42;;;1.13;;
72060;SDS011;59925;52.136;5.420;2022-07-29T06:41:33;2.53;;;1.43;;
72060;SDS011;59925;52.136;5.420;2022-07-29T06:44:00;3.67;;;1.33;;
72060;SDS011;59925;52.136;5.420;2022-07-29T06:46:27;3.25;;;1.35;;
72060;SDS011;59925;52.136;5.420;2022-07-29T06:48:53;4.25;;;1.27;;
72060;SDS011;59925;52.136;5.420;2022-07-29T06:51:20;2.83;;;1.30;;
72060;SDS011;59925;52.136;5.420;2022-07-29T06:53:50;3.83;;;1.50;;
72060;SDS011;59925;52.136;5.420;2022-07-29T06:56:37;2.58;;;1.27;;
72060;SDS011;59925;52.136;5.420;2022-07-29T06:59:09;3.55;;;1.42;;
72060;SDS011;59925;52.136;5.420;2022-07-29T07:01:36;3.13;;;1.45;;
72060;SDS011;59925;52.136;5.420;2022-07-29T07:04:05;2.15;;;1.30;;
72060;SDS011;59925;52.136;5.420;2022-07-29T07:06:31;1.80;;;1.17;;
72060;SDS011;59925;52.136;5.420;2022-07-29T07:08:58;3.78;;;1.55;;
72060;SDS011;59925;52.136;5.420;2022-07-29T07:11:25;3.10;;;1.70;;
72060;SDS011;59925;52.136;5.420;2022-07-29T07:13:51;3.30;;;1.60;;
72060;SDS011;59925;52.136;5.420;2022-07-29T07:16:17;4.45;;;1.70;;
72060;SDS011;59925;52.136;5.420;2022-07-29T07:18:44;3.70;;;1.60;;
72060;SDS011;59925;52.136;5.420;2022-07-29T07:21:11;3.97;;;1.60;;
72060;SDS011;59925;52.136;5.420;2022-07-29T07:23:44;2.85;;;1.52;;
72060;SDS011;59925;52.136;5.420;2022-07-29T07:26:10;3.05;;;1.40;;
72060;SDS011;59925;52.136;5.420;2022-07-29T07:28:37;2.67;;;1.65;;
72060;SDS011;59925;52.136;5.420;2022-07-29T07:31:03;2.33;;;1.50;;
72060;SDS011;59925;52.136;5.420;2022-07-29T07:33:29;2.95;;;1.73;;
72060;SDS011;59925;52.136;5.420;2022-07-29T07:35:56;3.08;;;2.10;;
72060;SDS011;59925;52.136;5.420;2022-07-29T07:38:22;6.75;;;2.38;;
72060;SDS011;59925;52.136;5.420;2022-07-29T07:40:49;4.50;;;1.75;;
72060;SDS011;59925;52.136;5.420;2022-07-29T07:43:15;4.70;;;1.70;;
72060;SDS011;59925;52.136;5.420;2022-07-29T07:45:41;5.53;;;1.88;;
72060;SDS011;59925;52.136;5.420;2022-07-29T07:48:08;5.55;;;1.40;;
72060;SDS011;59925;52.136;5.420;2022-07-29T07:50:36;6.38;;;1.83;;
72060;SDS011;59925;52.136;5.420;2022-07-29T07:53:03;3.25;;;1.50;;
72060;SDS011;59925;52.136;5.420;2022-07-29T07:55:29;4.97;;;1.50;;
72060;SDS011;59925;52.136;5.420;2022-07-29T07:58:16;1.90;;;1.40;;
72060;SDS011;59925;52.136;5.420;2022-07-29T08:00:42;3.30;;;1.70;;
72060;SDS011;59925;52.136;5.420;2022-07-29T08:03:09;3.10;;;1.75;;
72060;SDS011;59925;52.136;5.420;2022-07-29T08:05:42;3.42;;;1.75;;
72060;SDS011;59925;52.136;5.420;2022-07-29T08:08:09;2.23;;;1.37;;
72060;SDS011;59925;52.136;5.420;2022-07-29T08:10:36;5.47;;;1.60;;
72060;SDS011;59925;52.136;5.420;2022-07-29T08:13:21;4.32;;;1.42;;
72060;SDS011;59925;52.136;5.420;2022-07-29T08:15:49;3.53;;;1.55;;
72060;SDS011;59925;52.136;5.420;2022-07-29T08:18:37;2.97;;;1.58;;
72060;SDS011;59925;52.136;5.420;2022-07-29T08:21:04;3.50;;;1.33;;
72060;SDS011;59925;52.136;5.420;2022-07-29T08:23:30;4.45;;;1.38;;
72060;SDS011;59925;52.136;5.420;2022-07-29T08:26:13;2.35;;;1.38;;
72060;SDS011;59925;52.136;5.420;2022-07-29T08:28:41;2.97;;;1.48;;
72060;SDS011;59925;52.136;5.420;2022-07-29T08:31:12;3.72;;;1.75;;
72060;SDS011;59925;52.136;5.420;2022-07-29T08:33:40;4.33;;;1.50;;
72060;SDS011;59925;52.136;5.420;2022-07-29T08:36:06;2.60;;;1.30;;
72060;SDS011;59925;52.136;5.420;2022-07-29T08:38:33;6.18;;;1.60;;
72060;SDS011;59925;52.136;5.420;2022-07-29T08:41:00;5.93;;;1.70;;
72060;SDS011;59925;52.136;5.420;2022-07-29T08:43:28;3.50;;;1.85;;
72060;SDS011;59925;52.136;5.420;2022-07-29T08:45:55;4.70;;;1.87;;
72060;SDS011;59925;52.136;5.420;2022-07-29T08:48:22;6.18;;;2.25;;
72060;SDS011;59925;52.136;5.420;2022-07-29T08:50:52;4.97;;;2.10;;
72060;SDS011;59925;52.136;5.420;2022-07-29T08:53:21;4.25;;;1.50;;
72060;SDS011;59925;52.136;5.420;2022-07-29T08:55:52;3.20;;;1.45;;
72060;SDS011;59925;52.136;5.420;2022-07-29T08:58:19;4.87;;;1.77;;
72060;SDS011;59925;52.136;5.420;2022-07-29T09:00:51;2.95;;;1.70;;
72060;SDS011;59925;52.136;5.420;2022-07-29T09:03:22;6.90;;;1.75;;
72060;SDS011;59925;52.136;5.420;2022-07-29T09:05:50;6.38;;;1.85;;
72060;SDS011;59925;52.136;5.420;2022-07-29T09:08:17;3.78;;;1.60;;
72060;SDS011;59925;52.136;5.420;2022-07-29T09:10:46;2.70;;;1.70;;
72060;SDS011;59925;52.136;5.420;2022-07-29T09:13:12;6.80;;;1.65;;
72060;SDS011;59925;52.136;5.420;2022-07-29T09:15:39;5.70;;;1.60;;
72060;SDS011;59925;52.136;5.420;2022-07-29T09:18:05;3.72;;;1.50;;
72060;SDS011;59925;52.136;5.420;2022-07-29T09:20:32;2.50;;;1.58;;
72060;SDS011;59925;52.136;5.420;2022-07-29T09:23:33;5.30;;;1.63;;
72060;SDS011;59925;52.136;5.420;2022-07-29T09:26:00;4.50;;;1.58;;
72060;SDS011;59925;52.136;5.420;2022-07-29T09:28:31;2.22;;;1.20;;
72060;SDS011;59925;52.136;5.420;2022-07-29T09:30:58;5.28;;;1.50;;
72060;SDS011;59925;52.136;5.420;2022-07-29T09:33:31;3.00;;;1.40;;
72060;SDS011;59925;52.136;5.420;2022-07-29T09:36:05;4.27;;;1.67;;
72060;SDS011;59925;52.136;5.420;2022-07-29T09:38:34;5.03;;;1.30;;
72060;SDS011;59925;52.136;5.420;2022-07-29T09:41:02;3.83;;;1.38;;
72060;SDS011;59925;52.136;5.420;2022-07-29T09:43:31;3.83;;;1.30;;
72060;SDS011;59925;52.136;5.420;2022-07-29T09:46:09;5.97;;;1.30;;
72060;SDS011;59925;52.136;5.420;2022-07-29T09:48:39;2.00;;;1.50;;
72060;SDS011;59925;52.136;5.420;2022-07-29T09:51:15;3.03;;;1.27;;
72060;SDS011;59925;52.136;5.420;2022-07-29T09:53:47;3.40;;;1.40;;
72060;SDS011;59925;52.136;5.420;2022-07-29T09:56:13;3.55;;;1.40;;
72060;SDS011;59925;52.136;5.420;2022-07-29T09:58:40;4.18;;;1.80;;
72060;SDS011;59925;52.136;5.420;2022-07-29T10:01:06;4.63;;;1.70;;
72060;SDS011;59925;52.136;5.420;2022-07-29T10:03:33;3.25;;;1.80;;
72060;SDS011;59925;52.136;5.420;2022-07-29T10:06:16;4.82;;;1.88;;
72060;SDS011;59925;52.136;5.420;2022-07-29T10:08:43;5.53;;;2.00;;
72060;SDS011;59925;52.136;5.420;2022-07-29T10:13:37;3.77;;;1.70;;
72060;SDS011;59925;52.136;5.420;2022-07-29T10:16:05;6.15;;;2.13;;
72060;SDS011;59925;52.136;5.420;2022-07-29T10:18:32;2.53;;;1.60;;
72060;SDS011;59925;52.136;5.420;2022-07-29T10:20:59;7.82;;;1.85;;
72060;SDS011;59925;52.136;5.420;2022-07-29T10:23:27;3.22;;;1.80;;
72060;SDS011;59925;52.136;5.420;2022-07-29T10:26:11;2.43;;;1.60;;
72060;SDS011;59925;52.136;5.420;2022-07-29T10:28:38;5.18;;;1.70;;
72060;SDS011;59925;52.136;5.420;2022-07-29T10:31:05;4.05;;;2.05;;
72060;SDS011;59925;52.136;5.420;2022-07-29T10:39:23;5.90;;;2.43;;
72060;SDS011;59925;52.136;5.420;2022-07-29T10:42:25;4.47;;;2.20;;
72060;SDS011;59925;52.136;5.420;2022-07-29T10:45:00;3.60;;;1.60;;
72060;SDS011;59925;52.136;5.420;2022-07-29T10:47:29;3.92;;;1.90;;
72060;SDS011;59925;52.136;5.420;2022-07-29T10:49:59;4.82;;;2.00;;
72060;SDS011;59925;52.136;5.420;2022-07-29T10:55:31;3.25;;;2.00;;
72060;SDS011;59925;52.136;5.420;2022-07-29T11:00:50;5.72;;;2.47;;
72060;SDS011;59925;52.136;5.420;2022-07-29T11:06:18;4.63;;;2.70;;
72060;SDS011;59925;52.136;5.420;2022-07-29T11:11:45;7.57;;;2.65;;
72060;SDS011;59925;52.136;5.420;2022-07-29T11:17:23;3.17;;;2.50;;
72060;SDS011;59925;52.136;5.420;2022-07-29T11:19:50;6.43;;;2.40;;
72060;SDS011;59925;52.136;5.420;2022-07-29T11:22:33;4.30;;;2.70;;
72060;SDS011;59925;52.136;5.420;2022-07-29T11:25:13;7.35;;;2.92;;
72060;SDS011;59925;52.136;5.420;2022-07-29T11:27:42;4.97;;;2.50;;
72060;SDS011;59925;52.136;5.420;2022-07-29T11:30:11;4.75;;;2.20;;
72060;SDS011;59925;52.136;5.420;2022-07-29T11:32:40;4.10;;;1.97;;
72060;SDS011;59925;52.136;5.420;2022-07-29T11:43:57;4.93;;;1.45;;
72060;SDS011;59925;52.136;5.420;2022-07-29T11:49:22;5.95;;;1.50;;
72060;SDS011;59925;52.136;5.420;2022-07-29T11:51:58;4.25;;;1.58;;
72060;SDS011;59925;52.136;5.420;2022-07-29T11:54:32;3.25;;;1.67;;
72060;SDS011;59925;52.136;5.420;2022-07-29T11:57:20;6.32;;;2.83;;
72060;SDS011;59925;52.136;5.420;2022-07-29T11:59:47;3.70;;;1.60;;
72060;SDS011;59925;52.136;5.420;2022-07-29T12:02:14;7.05;;;2.00;;
72060;SDS011;59925;52.136;5.420;2022-07-29T12:05:01;3.60;;;1.42;;
72060;SDS011;59925;52.136;5.420;2022-07-29T12:07:36;3.85;;;1.45;;
72060;SDS011;59925;52.136;5.420;2022-07-29T12:10:06;3.75;;;1.85;;
72060;SDS011;59925;52.136;5.420;2022-07-29T12:12:44;4.00;;;1.80;;
72060;SDS011;59925;52.136;5.420;2022-07-29T12:15:19;6.82;;;1.90;;
72060;SDS011;59925;52.136;5.420;2022-07-29T12:18:14;4.28;;;2.00;;
72060;SDS011;59925;52.136;5.420;2022-07-29T12:20:43;4.05;;;1.70;;
72060;SDS011;59925;52.136;5.420;2022-07-29T12:23:11;5.35;;;2.20;;
72060;SDS011;59925;52.136;5.420;2022-07-29T12:25:42;4.57;;;1.70;;
72060;SDS011;59925;52.136;5.420;2022-07-29T12:28:14;2.70;;;1.80;;
72060;SDS011;59925;52.136;5.420;2022-07-29T12:30:52;5.85;;;1.63;;
72060;SDS011;59925;52.136;5.420;2022-07-29T12:33:22;9.60;;;2.20;;
72060;SDS011;59925;52.136;5.420;2022-07-29T12:35:51;5.00;;;2.10;;
72060;SDS011;59925;52.136;5.420;2022-07-29T12:38:33;5.67;;;2.13;;
72060;SDS011;59925;52.136;5.420;2022-07-29T12:41:03;4.72;;;2.00;;
72060;SDS011;59925;52.136;5.420;2022-07-29T12:43:30;3.78;;;1.95;;
72060;SDS011;59925;52.136;5.420;2022-07-29T12:45:57;5.43;;;2.22;;
72060;SDS011;59925;52.136;5.420;2022-07-29T12:48:39;6.03;;;2.13;;
72060;SDS011;59925;52.136;5.420;2022-07-29T12:51:07;4.07;;;1.83;;
72060;SDS011;59925;52.136;5.420;2022-07-29T12:53:36;4.18;;;1.95;;
72060;SDS011;59925;52.136;5.420;2022-07-29T12:56:03;3.53;;;2.15;;
72060;SDS011;59925;52.136;5.420;2022-07-29T12:58:51;3.85;;;1.90;;
72060;SDS011;59925;52.136;5.420;2022-07-29T13:01:18;6.28;;;1.73;;
72060;SDS011;59925;52.136;5.420;2022-07-29T13:09:15;7.47;;;2.03;;
72060;SDS011;59925;52.136;5.420;2022-07-29T13:14:28;3.72;;;2.20;;
72060;SDS011;59925;52.136;5.420;2022-07-29T13:19:38;5.72;;;2.33;;
72060;SDS011;59925;52.136;5.420;2022-07-29T13:22:13;3.70;;;2.50;;
72060;SDS011;59925;52.136;5.420;2022-07-29T13:27:15;7.57;;;2.00;;
72060;SDS011;59925;52.136;5.420;2022-07-29T13:29:42;6.27;;;2.30;;
72060;SDS011;59925;52.136;5.420;2022-07-29T13:32:10;5.45;;;2.15;;
72060;SDS011;59925;52.136;5.420;2022-07-29T13:34:37;4.05;;;2.22;;
72060;SDS011;59925;52.136;5.420;2022-07-29T13:37:04;2.58;;;2.08;;
72060;SDS011;59925;52.136;5.420;2022-07-29T13:39:31;3.70;;;2.20;;
72060;SDS011;59925;52.136;5.420;2022-07-29T13:41:57;3.63;;;2.20;;
72060;SDS011;59925;52.136;5.420;2022-07-29T13:44:25;4.45;;;2.00;;
72060;SDS011;59925;52.136;5.420;2022-07-29T13:46:51;5.63;;;2.17;;
72060;SDS011;59925;52.136;5.420;2022-07-29T13:49:17;6.40;;;1.88;;
72060;SDS011;59925;52.136;5.420;2022-07-29T13:51:44;4.15;;;2.40;;
72060;SDS011;59925;52.136;5.420;2022-07-29T13:54:10;3.23;;;2.30;;
72060;SDS011;59925;52.136;5.420;2022-07-29T13:56:36;6.57;;;2.22;;
72060;SDS011;59925;52.136;5.420;2022-07-29T13:59:03;5.85;;;3.00;;
72060;SDS011;59925;52.136;5.420;2022-07-29T14:01:29;5.47;;;2.60;;
72060;SDS011;59925;52.136;5.420;2022-07-29T14:03:56;4.68;;;2.20;;
72060;SDS011;59925;52.136;5.420;2022-07-29T14:06:23;4.83;;;2.40;;
72060;SDS011;59925;52.136;5.420;2022-07-29T14:08:50;5.30;;;2.60;;
72060;SDS011;59925;52.136;5.420;2022-07-29T14:11:16;4.47;;;2.38;;
72060;SDS011;59925;52.136;5.420;2022-07-29T14:13:43;6.90;;;2.20;;
72060;SDS011;59925;52.136;5.420;2022-07-29T14:16:10;4.82;;;2.20;;
72060;SDS011;59925;52.136;5.420;2022-07-29T14:18:37;6.60;;;2.23;;
72060;SDS011;59925;52.136;5.420;2022-07-29T14:21:03;3.47;;;2.10;;
72060;SDS011;59925;52.136;5.420;2022-07-29T14:23:29;6.60;;;2.13;;
72060;SDS011;59925;52.136;5.420;2022-07-29T14:25:56;4.03;;;2.25;;
72060;SDS011;59925;52.136;5.420;2022-07-29T14:28:23;3.88;;;1.80;;
72060;SDS011;59925;52.136;5.420;2022-07-29T14:30:49;3.50;;;2.00;;
72060;SDS011;59925;52.136;5.420;2022-07-29T14:33:16;6.45;;;2.20;;
72060;SDS011;59925;52.136;5.420;2022-07-29T14:35:42;5.20;;;2.47;;
72060;SDS011;59925;52.136;5.420;2022-07-29T14:38:09;5.78;;;2.10;;
72060;SDS011;59925;52.136;5.420;2022-07-29T14:40:38;4.43;;;2.10;;
72060;SDS011;59925;52.136;5.420;2022-07-29T14:43:04;6.73;;;2.87;;
72060;SDS011;59925;52.136;5.420;2022-07-29T14:45:30;4.20;;;2.33;;
72060;SDS011;59925;52.136;5.420;2022-07-29T14:47:57;7.28;;;2.65;;
72060;SDS011;59925;52.136;5.420;2022-07-29T14:50:24;4.18;;;2.58;;
72060;SDS011;59925;52.136;5.420;2022-07-29T14:52:57;6.45;;;2.78;;
72060;SDS011;59925;52.136;5.420;2022-07-29T14:55:24;7.30;;;2.57;;
72060;SDS011;59925;52.136;5.420;2022-07-29T14:57:50;6.85;;;2.67;;
72060;SDS011;59925;52.136;5.420;2022-07-29T15:00:17;5.78;;;2.30;;
72060;SDS011;59925;52.136;5.420;2022-07-29T15:02:43;4.85;;;2.35;;
72060;SDS011;59925;52.136;5.420;2022-07-29T15:05:27;3.85;;;2.35;;
72060;SDS011;59925;52.136;5.420;2022-07-29T15:07:53;8.00;;;2.50;;
72060;SDS011;59925;52.136;5.420;2022-07-29T15:10:20;4.43;;;2.10;;
72060;SDS011;59925;52.136;5.420;2022-07-29T15:12:49;6.15;;;2.30;;
72060;SDS011;59925;52.136;5.420;2022-07-29T15:15:16;4.90;;;2.13;;
72060;SDS011;59925;52.136;5.420;2022-07-29T15:17:42;5.10;;;2.35;;
72060;SDS011;59925;52.136;5.420;2022-07-29T15:20:09;5.57;;;1.90;;
72060;SDS011;59925;52.136;5.420;2022-07-29T15:22:38;3.72;;;1.73;;
72060;SDS011;59925;52.136;5.420;2022-07-29T15:25:05;3.67;;;1.70;;
72060;SDS011;59925;52.136;5.420;2022-07-29T15:27:32;2.65;;;1.92;;
72060;SDS011;59925;52.136;5.420;2022-07-29T15:29:58;4.93;;;1.77;;
72060;SDS011;59925;52.136;5.420;2022-07-29T15:32:25;4.93;;;2.10;;
72060;SDS011;59925;52.136;5.420;2022-07-29T15:34:54;5.57;;;1.85;;
72060;SDS011;59925;52.136;5.420;2022-07-29T15:37:20;4.63;;;1.75;;
72060;SDS011;59925;52.136;5.420;2022-07-29T15:39:47;5.95;;;1.95;;
72060;SDS011;59925;52.136;5.420;2022-07-29T15:42:13;4.68;;;1.40;;
72060;SDS011;59925;52.136;5.420;2022-07-29T15:44:42;3.43;;;1.53;;
72060;SDS011;59925;52.136;5.420;2022-07-29T15:47:09;4.45;;;1.40;;
72060;SDS011;59925;52.136;5.420;2022-07-29T15:49:36;3.90;;;1.50;;
72060;SDS011;59925;52.136;5.420;2022-07-29T15:52:14;3.88;;;1.55;;
72060;SDS011;59925;52.136;5.420;2022-07-29T15:54:51;2.88;;;1.20;;
72060;SDS011;59925;52.136;5.420;2022-07-29T15:57:22;5.17;;;1.80;;